sensor_id;sensor_type;location;lat;lon;timestamp;P1;durP1;ratioP1;P2;durP2;ratioP2
7545;SDS011;3814;51.454;12.616;2023-06-04T00:01:20;5.35;;;2.20;;
7545;SDS011;3814;51.454;12.616;2023-06-04T00:03:45;3.75;;;2.20;;
7545;SDS011;3814;51.454;12.616;2023-06-04T00:06:11;5.05;;;2.17;;
7545;SDS011;3814;51.454;12.616;2023-06-04T00:08:36;4.97;;;2.67;;
7545;SDS011;3814;51.454;12.616;2023-06-04T00:11:01;5.95;;;2.67;;
7545;SDS011;3814;51.454;12.616;2023-06-04T00:13:27;4.20;;;2.45;;
7545;SDS011;3814;51.454;12.616;2023-06-04T00:15:52;5.85;;;2.20;;
7545;SDS011;3814;51.454;12.616;2023-06-04T00:18:17;4.07;;;2.55;;
7545;SDS011;3814;51.454;12.616;2023-06-04T00:20:43;4.45;;;2.45;;
7545;SDS011;3814;51.454;12.616;2023-06-04T00:23:08;4.07;;;2.30;;
7545;SDS011;3814;51.454;12.616;2023-06-04T00:25:34;4.03;;;2.20;;
7545;SDS011;3814;51.454;12.616;2023-06-04T00:28:00;4.25;;;2.08;;
7545;SDS011;3814;51.454;12.616;2023-06-04T00:30:26;4.90;;;2.10;;
7545;SDS011;3814;51.454;12.616;2023-06-04T00:32:51;4.00;;;2.05;;
7545;SDS011;3814;51.454;12.616;2023-06-04T00:35:16;6.30;;;2.00;;
7545;SDS011;3814;51.454;12.616;2023-06-04T00:37:41;6.18;;;2.33;;
7545;SDS011;3814;51.454;12.616;2023-06-04T00:40:07;6.07;;;2.40;;
7545;SDS011;3814;51.454;12.616;2023-06-04T00:42:32;3.65;;;2.10;;
7545;SDS011;3814;51.454;12.616;2023-06-04T00:44:58;3.80;;;2.10;;
7545;SDS011;3814;51.454;12.616;2023-06-04T00:47:23;5.35;;;2.10;;
7545;SDS011;3814;51.454;12.616;2023-06-04T00:49:49;4.10;;;2.20;;
7545;SDS011;3814;51.454;12.616;2023-06-04T00:52:15;5.63;;;2.15;;
7545;SDS011;3814;51.454;12.616;2023-06-04T00:54:40;4.63;;;2.28;;
7545;SDS011;3814;51.454;12.616;2023-06-04T00:57:06;3.60;;;1.80;;
7545;SDS011;3814;51.454;12.616;2023-06-04T00:59:33;4.47;;;1.90;;
7545;SDS011;3814;51.454;12.616;2023-06-04T01:07:21;4.85;;;2.35;;
7545;SDS011;3814;51.454;12.616;2023-06-04T01:09:46;4.65;;;2.40;;
7545;SDS011;3814;51.454;12.616;2023-06-04T01:12:12;4.88;;;2.38;;
7545;SDS011;3814;51.454;12.616;2023-06-04T01:14:38;4.85;;;2.63;;
7545;SDS011;3814;51.454;12.616;2023-06-04T01:22:53;7.35;;;3.00;;
7545;SDS011;3814;51.454;12.616;2023-06-04T01:25:28;4.50;;;2.50;;
7545;SDS011;3814;51.454;12.616;2023-06-04T01:27:57;5.97;;;2.92;;
7545;SDS011;3814;51.454;12.616;2023-06-04T01:30:26;5.68;;;2.80;;
7545;SDS011;3814;51.454;12.616;2023-06-04T01:32:54;5.43;;;2.88;;
7545;SDS011;3814;51.454;12.616;2023-06-04T01:35:20;4.85;;;2.83;;
7545;SDS011;3814;51.454;12.616;2023-06-04T01:37:46;6.03;;;2.80;;
7545;SDS011;3814;51.454;12.616;2023-06-04T01:40:12;5.05;;;2.88;;
7545;SDS011;3814;51.454;12.616;2023-06-04T01:42:39;5.10;;;2.85;;
7545;SDS011;3814;51.454;12.616;2023-06-04T01:45:06;4.95;;;3.00;;
7545;SDS011;3814;51.454;12.616;2023-06-04T01:47:32;5.60;;;2.67;;
7545;SDS011;3814;51.454;12.616;2023-06-04T01:49:57;5.72;;;3.00;;
7545;SDS011;3814;51.454;12.616;2023-06-04T01:52:23;5.50;;;3.05;;
7545;SDS011;3814;51.454;12.616;2023-06-04T01:54:48;5.95;;;2.83;;
7545;SDS011;3814;51.454;12.616;2023-06-04T01:57:17;4.43;;;2.70;;
7545;SDS011;3814;51.454;12.616;2023-06-04T01:59:42;5.40;;;2.50;;
7545;SDS011;3814;51.454;12.616;2023-06-04T02:02:08;5.10;;;2.70;;
7545;SDS011;3814;51.454;12.616;2023-06-04T02:04:33;4.63;;;2.70;;
7545;SDS011;3814;51.454;12.616;2023-06-04T02:07:01;4.82;;;2.63;;
7545;SDS011;3814;51.454;12.616;2023-06-04T02:09:27;5.18;;;2.33;;
7545;SDS011;3814;51.454;12.616;2023-06-04T02:11:52;6.25;;;2.55;;
7545;SDS011;3814;51.454;12.616;2023-06-04T02:14:17;3.72;;;2.33;;
7545;SDS011;3814;51.454;12.616;2023-06-04T02:16:43;4.88;;;2.25;;
7545;SDS011;3814;51.454;12.616;2023-06-04T02:19:09;4.55;;;2.40;;
7545;SDS011;3814;51.454;12.616;2023-06-04T02:21:37;5.45;;;2.45;;
7545;SDS011;3814;51.454;12.616;2023-06-04T02:24:03;3.72;;;2.17;;
7545;SDS011;3814;51.454;12.616;2023-06-04T02:26:30;4.13;;;2.35;;
7545;SDS011;3814;51.454;12.616;2023-06-04T02:28:57;4.20;;;2.40;;
7545;SDS011;3814;51.454;12.616;2023-06-04T02:31:22;4.90;;;2.60;;
7545;SDS011;3814;51.454;12.616;2023-06-04T02:33:48;6.00;;;2.65;;
7545;SDS011;3814;51.454;12.616;2023-06-04T02:36:13;5.88;;;2.65;;
7545;SDS011;3814;51.454;12.616;2023-06-04T02:38:38;5.38;;;2.38;;
7545;SDS011;3814;51.454;12.616;2023-06-04T02:41:04;3.78;;;2.40;;
7545;SDS011;3814;51.454;12.616;2023-06-04T02:43:30;5.15;;;2.40;;
7545;SDS011;3814;51.454;12.616;2023-06-04T02:45:55;5.00;;;2.47;;
7545;SDS011;3814;51.454;12.616;2023-06-04T02:48:20;4.63;;;2.38;;
7545;SDS011;3814;51.454;12.616;2023-06-04T02:50:46;4.93;;;2.40;;
7545;SDS011;3814;51.454;12.616;2023-06-04T02:53:11;4.28;;;2.50;;
7545;SDS011;3814;51.454;12.616;2023-06-04T02:55:36;4.47;;;2.22;;
7545;SDS011;3814;51.454;12.616;2023-06-04T02:58:02;4.00;;;2.22;;
7545;SDS011;3814;51.454;12.616;2023-06-04T03:00:27;4.53;;;2.45;;
7545;SDS011;3814;51.454;12.616;2023-06-04T03:02:53;6.93;;;2.20;;
7545;SDS011;3814;51.454;12.616;2023-06-04T03:05:26;3.53;;;2.15;;
7545;SDS011;3814;51.454;12.616;2023-06-04T03:07:51;4.05;;;2.20;;
7545;SDS011;3814;51.454;12.616;2023-06-04T03:10:17;3.88;;;2.00;;
7545;SDS011;3814;51.454;12.616;2023-06-04T03:12:42;4.78;;;2.15;;
7545;SDS011;3814;51.454;12.616;2023-06-04T03:15:08;4.25;;;2.30;;
7545;SDS011;3814;51.454;12.616;2023-06-04T03:17:34;4.07;;;2.35;;
7545;SDS011;3814;51.454;12.616;2023-06-04T03:19:59;3.55;;;2.17;;
7545;SDS011;3814;51.454;12.616;2023-06-04T03:22:25;5.43;;;2.38;;
7545;SDS011;3814;51.454;12.616;2023-06-04T03:24:51;4.07;;;2.40;;
7545;SDS011;3814;51.454;12.616;2023-06-04T03:27:17;3.60;;;2.00;;
7545;SDS011;3814;51.454;12.616;2023-06-04T03:29:44;3.70;;;2.40;;
7545;SDS011;3814;51.454;12.616;2023-06-04T03:32:10;5.22;;;2.50;;
7545;SDS011;3814;51.454;12.616;2023-06-04T03:34:37;4.72;;;2.40;;
7545;SDS011;3814;51.454;12.616;2023-06-04T03:37:02;4.82;;;2.47;;
7545;SDS011;3814;51.454;12.616;2023-06-04T03:39:28;3.88;;;2.08;;
7545;SDS011;3814;51.454;12.616;2023-06-04T03:41:54;4.10;;;2.30;;
7545;SDS011;3814;51.454;12.616;2023-06-04T03:44:21;4.20;;;2.40;;
7545;SDS011;3814;51.454;12.616;2023-06-04T03:46:47;3.78;;;2.17;;
7545;SDS011;3814;51.454;12.616;2023-06-04T03:49:13;3.88;;;2.00;;
7545;SDS011;3814;51.454;12.616;2023-06-04T03:51:40;4.05;;;2.17;;
7545;SDS011;3814;51.454;12.616;2023-06-04T03:54:06;4.15;;;2.05;;
7545;SDS011;3814;51.454;12.616;2023-06-04T03:56:31;3.72;;;2.03;;
7545;SDS011;3814;51.454;12.616;2023-06-04T03:58:58;4.25;;;2.20;;
7545;SDS011;3814;51.454;12.616;2023-06-04T04:01:24;5.43;;;2.50;;
7545;SDS011;3814;51.454;12.616;2023-06-04T04:03:50;4.18;;;2.35;;
7545;SDS011;3814;51.454;12.616;2023-06-04T04:06:17;4.78;;;2.38;;
7545;SDS011;3814;51.454;12.616;2023-06-04T04:08:43;4.57;;;2.30;;
7545;SDS011;3814;51.454;12.616;2023-06-04T04:11:11;3.85;;;2.10;;
7545;SDS011;3814;51.454;12.616;2023-06-04T04:13:37;8.98;;;2.38;;
7545;SDS011;3814;51.454;12.616;2023-06-04T04:16:04;5.07;;;2.30;;
7545;SDS011;3814;51.454;12.616;2023-06-04T04:18:36;5.75;;;2.45;;
7545;SDS011;3814;51.454;12.616;2023-06-04T04:21:01;4.50;;;2.40;;
7545;SDS011;3814;51.454;12.616;2023-06-04T04:23:28;4.10;;;2.13;;
7545;SDS011;3814;51.454;12.616;2023-06-04T04:25:54;4.15;;;2.30;;
7545;SDS011;3814;51.454;12.616;2023-06-04T04:28:22;4.78;;;2.28;;
7545;SDS011;3814;51.454;12.616;2023-06-04T04:30:48;3.97;;;2.25;;
7545;SDS011;3814;51.454;12.616;2023-06-04T04:33:14;3.42;;;2.20;;
7545;SDS011;3814;51.454;12.616;2023-06-04T04:35:44;4.28;;;1.95;;
7545;SDS011;3814;51.454;12.616;2023-06-04T04:38:10;4.97;;;2.40;;
7545;SDS011;3814;51.454;12.616;2023-06-04T04:40:40;7.20;;;2.05;;
7545;SDS011;3814;51.454;12.616;2023-06-04T04:43:06;4.47;;;1.83;;
7545;SDS011;3814;51.454;12.616;2023-06-04T04:45:31;4.03;;;2.10;;
7545;SDS011;3814;51.454;12.616;2023-06-04T04:47:57;4.22;;;1.92;;
7545;SDS011;3814;51.454;12.616;2023-06-04T04:50:22;4.75;;;1.95;;
7545;SDS011;3814;51.454;12.616;2023-06-04T04:52:48;3.88;;;1.90;;
7545;SDS011;3814;51.454;12.616;2023-06-04T04:55:13;2.67;;;1.40;;
7545;SDS011;3814;51.454;12.616;2023-06-04T04:57:38;2.92;;;1.75;;
7545;SDS011;3814;51.454;12.616;2023-06-04T05:00:04;3.67;;;1.88;;
7545;SDS011;3814;51.454;12.616;2023-06-04T05:02:37;3.33;;;1.80;;
7545;SDS011;3814;51.454;12.616;2023-06-04T05:05:03;5.13;;;2.08;;
7545;SDS011;3814;51.454;12.616;2023-06-04T05:07:28;4.45;;;2.00;;
7545;SDS011;3814;51.454;12.616;2023-06-04T05:09:54;3.13;;;1.85;;
7545;SDS011;3814;51.454;12.616;2023-06-04T05:12:19;4.65;;;1.83;;
7545;SDS011;3814;51.454;12.616;2023-06-04T05:14:45;3.70;;;1.98;;
7545;SDS011;3814;51.454;12.616;2023-06-04T05:17:10;2.55;;;1.30;;
7545;SDS011;3814;51.454;12.616;2023-06-04T05:19:38;3.17;;;1.90;;
7545;SDS011;3814;51.454;12.616;2023-06-04T05:22:03;3.35;;;1.77;;
7545;SDS011;3814;51.454;12.616;2023-06-04T05:24:30;3.65;;;1.80;;
7545;SDS011;3814;51.454;12.616;2023-06-04T05:26:56;4.57;;;2.20;;
7545;SDS011;3814;51.454;12.616;2023-06-04T05:29:22;3.13;;;1.90;;
7545;SDS011;3814;51.454;12.616;2023-06-04T05:31:48;5.32;;;2.10;;
7545;SDS011;3814;51.454;12.616;2023-06-04T05:34:13;5.03;;;1.98;;
7545;SDS011;3814;51.454;12.616;2023-06-04T05:36:41;5.68;;;1.70;;
7545;SDS011;3814;51.454;12.616;2023-06-04T05:39:07;4.32;;;1.90;;
7545;SDS011;3814;51.454;12.616;2023-06-04T05:41:34;3.45;;;1.63;;
7545;SDS011;3814;51.454;12.616;2023-06-04T05:44:01;2.63;;;1.60;;
7545;SDS011;3814;51.454;12.616;2023-06-04T05:46:27;3.17;;;1.90;;
7545;SDS011;3814;51.454;12.616;2023-06-04T05:48:53;4.72;;;1.80;;
7545;SDS011;3814;51.454;12.616;2023-06-04T05:51:19;4.63;;;2.00;;
7545;SDS011;3814;51.454;12.616;2023-06-04T05:53:46;4.75;;;2.00;;
7545;SDS011;3814;51.454;12.616;2023-06-04T05:56:13;4.35;;;1.75;;
7545;SDS011;3814;51.454;12.616;2023-06-04T05:58:38;3.85;;;1.48;;
7545;SDS011;3814;51.454;12.616;2023-06-04T06:01:04;4.75;;;1.67;;
7545;SDS011;3814;51.454;12.616;2023-06-04T06:03:29;4.72;;;1.63;;
7545;SDS011;3814;51.454;12.616;2023-06-04T06:05:54;2.75;;;1.60;;
7545;SDS011;3814;51.454;12.616;2023-06-04T06:08:22;2.53;;;1.40;;
7545;SDS011;3814;51.454;12.616;2023-06-04T06:10:47;4.10;;;1.50;;
7545;SDS011;3814;51.454;12.616;2023-06-04T06:13:13;3.20;;;1.70;;
7545;SDS011;3814;51.454;12.616;2023-06-04T06:15:38;4.80;;;1.60;;
7545;SDS011;3814;51.454;12.616;2023-06-04T06:18:04;2.97;;;1.65;;
7545;SDS011;3814;51.454;12.616;2023-06-04T06:20:30;4.50;;;1.60;;
7545;SDS011;3814;51.454;12.616;2023-06-04T06:22:57;4.43;;;1.65;;
7545;SDS011;3814;51.454;12.616;2023-06-04T06:25:30;3.92;;;1.42;;
7545;SDS011;3814;51.454;12.616;2023-06-04T06:27:55;2.45;;;1.48;;
7545;SDS011;3814;51.454;12.616;2023-06-04T06:30:21;3.40;;;1.35;;
7545;SDS011;3814;51.454;12.616;2023-06-04T06:32:47;3.38;;;1.45;;
7545;SDS011;3814;51.454;12.616;2023-06-04T06:35:13;3.22;;;1.58;;
7545;SDS011;3814;51.454;12.616;2023-06-04T06:37:38;2.72;;;1.35;;
7545;SDS011;3814;51.454;12.616;2023-06-04T06:40:07;3.05;;;1.40;;
7545;SDS011;3814;51.454;12.616;2023-06-04T06:42:33;3.70;;;1.52;;
7545;SDS011;3814;51.454;12.616;2023-06-04T06:44:59;4.20;;;1.40;;
7545;SDS011;3814;51.454;12.616;2023-06-04T06:47:25;7.30;;;1.63;;
7545;SDS011;3814;51.454;12.616;2023-06-04T06:49:52;2.22;;;1.17;;
7545;SDS011;3814;51.454;12.616;2023-06-04T06:52:18;3.05;;;1.30;;
7545;SDS011;3814;51.454;12.616;2023-06-04T06:54:44;2.97;;;1.30;;
7545;SDS011;3814;51.454;12.616;2023-06-04T06:57:11;3.80;;;1.23;;
7545;SDS011;3814;51.454;12.616;2023-06-04T06:59:37;2.40;;;1.08;;
7545;SDS011;3814;51.454;12.616;2023-06-04T07:02:04;3.40;;;1.20;;
7545;SDS011;3814;51.454;12.616;2023-06-04T07:04:30;2.70;;;1.48;;
7545;SDS011;3814;51.454;12.616;2023-06-04T07:06:56;2.75;;;1.20;;
7545;SDS011;3814;51.454;12.616;2023-06-04T07:09:22;4.57;;;1.38;;
7545;SDS011;3814;51.454;12.616;2023-06-04T07:11:47;3.65;;;1.02;;
7545;SDS011;3814;51.454;12.616;2023-06-04T07:14:12;3.38;;;1.10;;
7545;SDS011;3814;51.454;12.616;2023-06-04T07:16:39;3.42;;;1.33;;
7545;SDS011;3814;51.454;12.616;2023-06-04T07:19:05;2.65;;;1.30;;
7545;SDS011;3814;51.454;12.616;2023-06-04T07:21:31;3.65;;;1.33;;
7545;SDS011;3814;51.454;12.616;2023-06-04T07:23:58;2.65;;;1.00;;
7545;SDS011;3814;51.454;12.616;2023-06-04T07:26:25;2.00;;;1.25;;
7545;SDS011;3814;51.454;12.616;2023-06-04T07:28:55;2.70;;;1.20;;
7545;SDS011;3814;51.454;12.616;2023-06-04T07:31:22;4.88;;;1.30;;
7545;SDS011;3814;51.454;12.616;2023-06-04T07:33:48;2.38;;;1.20;;
7545;SDS011;3814;51.454;12.616;2023-06-04T07:36:15;3.60;;;1.30;;
7545;SDS011;3814;51.454;12.616;2023-06-04T07:38:42;2.47;;;1.33;;
7545;SDS011;3814;51.454;12.616;2023-06-04T07:41:11;3.42;;;1.10;;
7545;SDS011;3814;51.454;12.616;2023-06-04T07:43:38;2.72;;;1.00;;
7545;SDS011;3814;51.454;12.616;2023-06-04T07:46:05;5.40;;;1.30;;
7545;SDS011;3814;51.454;12.616;2023-06-04T07:48:31;6.32;;;1.50;;
7545;SDS011;3814;51.454;12.616;2023-06-04T07:50:57;2.72;;;1.00;;
7545;SDS011;3814;51.454;12.616;2023-06-04T07:53:24;3.20;;;1.00;;
7545;SDS011;3814;51.454;12.616;2023-06-04T07:55:53;1.92;;;1.00;;
7545;SDS011;3814;51.454;12.616;2023-06-04T07:58:49;3.35;;;1.30;;
7545;SDS011;3814;51.454;12.616;2023-06-04T08:01:16;2.70;;;1.20;;
7545;SDS011;3814;51.454;12.616;2023-06-04T08:03:48;3.17;;;1.02;;
7545;SDS011;3814;51.454;12.616;2023-06-04T08:06:14;1.80;;;1.00;;
7545;SDS011;3814;51.454;12.616;2023-06-04T08:08:43;2.45;;;1.02;;
7545;SDS011;3814;51.454;12.616;2023-06-04T08:11:13;2.25;;;1.20;;
7545;SDS011;3814;51.454;12.616;2023-06-04T08:13:43;4.32;;;1.00;;
7545;SDS011;3814;51.454;12.616;2023-06-04T08:16:08;3.72;;;1.00;;
7545;SDS011;3814;51.454;12.616;2023-06-04T08:18:41;1.98;;;0.95;;
7545;SDS011;3814;51.454;12.616;2023-06-04T08:21:08;1.88;;;0.70;;
7545;SDS011;3814;51.454;12.616;2023-06-04T08:23:35;4.18;;;1.00;;
7545;SDS011;3814;51.454;12.616;2023-06-04T08:26:06;4.00;;;0.90;;
7545;SDS011;3814;51.454;12.616;2023-06-04T08:28:38;2.08;;;0.70;;
7545;SDS011;3814;51.454;12.616;2023-06-04T08:31:04;2.05;;;0.90;;
7545;SDS011;3814;51.454;12.616;2023-06-04T08:33:32;1.23;;;0.73;;
7545;SDS011;3814;51.454;12.616;2023-06-04T08:35:59;2.75;;;0.85;;
7545;SDS011;3814;51.454;12.616;2023-06-04T08:38:26;3.20;;;0.90;;
7545;SDS011;3814;51.454;12.616;2023-06-04T08:40:52;4.05;;;0.93;;
7545;SDS011;3814;51.454;12.616;2023-06-04T08:43:19;1.63;;;0.70;;
7545;SDS011;3814;51.454;12.616;2023-06-04T08:45:45;4.40;;;0.95;;
7545;SDS011;3814;51.454;12.616;2023-06-04T08:48:17;10.07;;;1.40;;
7545;SDS011;3814;51.454;12.616;2023-06-04T08:50:43;10.45;;;1.30;;
7545;SDS011;3814;51.454;12.616;2023-06-04T08:53:12;2.10;;;1.00;;
7545;SDS011;3814;51.454;12.616;2023-06-04T08:55:42;1.95;;;0.90;;
7545;SDS011;3814;51.454;12.616;2023-06-04T08:58:12;1.38;;;0.80;;
7545;SDS011;3814;51.454;12.616;2023-06-04T09:00:39;2.50;;;0.90;;
7545;SDS011;3814;51.454;12.616;2023-06-04T09:03:06;2.30;;;0.85;;
7545;SDS011;3814;51.454;12.616;2023-06-04T09:05:31;2.58;;;0.90;;
7545;SDS011;3814;51.454;12.616;2023-06-04T09:08:00;5.38;;;1.00;;
7545;SDS011;3814;51.454;12.616;2023-06-04T09:10:26;2.60;;;0.90;;
7545;SDS011;3814;51.454;12.616;2023-06-04T09:12:53;2.33;;;1.10;;
7545;SDS011;3814;51.454;12.616;2023-06-04T09:15:19;1.38;;;0.77;;
7545;SDS011;3814;51.454;12.616;2023-06-04T09:17:44;1.35;;;0.80;;
7545;SDS011;3814;51.454;12.616;2023-06-04T09:20:19;1.33;;;0.80;;
7545;SDS011;3814;51.454;12.616;2023-06-04T09:22:47;1.33;;;0.85;;
7545;SDS011;3814;51.454;12.616;2023-06-04T09:25:23;1.60;;;0.90;;
7545;SDS011;3814;51.454;12.616;2023-06-04T09:27:56;3.35;;;1.10;;
7545;SDS011;3814;51.454;12.616;2023-06-04T09:30:37;3.40;;;0.90;;
7545;SDS011;3814;51.454;12.616;2023-06-04T09:33:10;1.98;;;1.00;;
7545;SDS011;3814;51.454;12.616;2023-06-04T09:35:38;2.85;;;1.00;;
7545;SDS011;3814;51.454;12.616;2023-06-04T09:38:04;2.72;;;0.90;;
7545;SDS011;3814;51.454;12.616;2023-06-04T09:40:36;1.60;;;1.00;;
7545;SDS011;3814;51.454;12.616;2023-06-04T09:43:08;2.60;;;0.90;;
7545;SDS011;3814;51.454;12.616;2023-06-04T09:45:46;1.55;;;1.08;;
7545;SDS011;3814;51.454;12.616;2023-06-04T09:48:20;3.30;;;1.20;;
7545;SDS011;3814;51.454;12.616;2023-06-04T09:50:53;2.15;;;1.00;;
7545;SDS011;3814;51.454;12.616;2023-06-04T09:53:54;1.58;;;0.98;;
7545;SDS011;3814;51.454;12.616;2023-06-04T09:56:23;1.85;;;1.10;;
7545;SDS011;3814;51.454;12.616;2023-06-04T09:58:53;1.35;;;0.80;;
7545;SDS011;3814;51.454;12.616;2023-06-04T10:01:20;3.38;;;1.10;;
7545;SDS011;3814;51.454;12.616;2023-06-04T10:03:48;3.47;;;1.10;;
7545;SDS011;3814;51.454;12.616;2023-06-04T10:06:15;5.18;;;1.10;;
7545;SDS011;3814;51.454;12.616;2023-06-04T10:08:41;2.47;;;1.08;;
7545;SDS011;3814;51.454;12.616;2023-06-04T10:11:07;1.85;;;1.02;;
7545;SDS011;3814;51.454;12.616;2023-06-04T10:16:19;2.00;;;1.10;;
7545;SDS011;3814;51.454;12.616;2023-06-04T10:18:45;2.05;;;1.00;;
7545;SDS011;3814;51.454;12.616;2023-06-04T10:21:13;2.40;;;0.88;;
7545;SDS011;3814;51.454;12.616;2023-06-04T10:23:38;3.65;;;1.00;;
7545;SDS011;3814;51.454;12.616;2023-06-04T10:26:03;1.75;;;1.00;;
7545;SDS011;3814;51.454;12.616;2023-06-04T10:28:29;3.05;;;1.10;;
7545;SDS011;3814;51.454;12.616;2023-06-04T10:30:55;1.67;;;1.08;;
7545;SDS011;3814;51.454;12.616;2023-06-04T10:33:20;2.03;;;1.10;;
7545;SDS011;3814;51.454;12.616;2023-06-04T10:35:49;3.15;;;1.00;;
7545;SDS011;3814;51.454;12.616;2023-06-04T10:38:15;2.28;;;1.00;;
7545;SDS011;3814;51.454;12.616;2023-06-04T10:40:41;2.15;;;1.02;;
7545;SDS011;3814;51.454;12.616;2023-06-04T10:43:07;3.97;;;0.90;;
7545;SDS011;3814;51.454;12.616;2023-06-04T10:45:33;4.68;;;0.98;;
7545;SDS011;3814;51.454;12.616;2023-06-04T10:47:59;1.65;;;0.90;;
7545;SDS011;3814;51.454;12.616;2023-06-04T10:50:25;2.28;;;1.10;;
7545;SDS011;3814;51.454;12.616;2023-06-04T10:52:51;2.20;;;1.00;;
7545;SDS011;3814;51.454;12.616;2023-06-04T10:55:19;3.28;;;1.05;;
7545;SDS011;3814;51.454;12.616;2023-06-04T10:57:56;1.92;;;0.88;;
7545;SDS011;3814;51.454;12.616;2023-06-04T11:00:42;2.42;;;0.90;;
7545;SDS011;3814;51.454;12.616;2023-06-04T11:03:14;2.75;;;1.00;;
7545;SDS011;3814;51.454;12.616;2023-06-04T11:05:41;2.13;;;0.90;;
7545;SDS011;3814;51.454;12.616;2023-06-04T11:08:11;2.63;;;1.05;;
7545;SDS011;3814;51.454;12.616;2023-06-04T11:10:39;2.45;;;0.93;;
7545;SDS011;3814;51.454;12.616;2023-06-04T11:13:06;2.90;;;0.90;;
7545;SDS011;3814;51.454;12.616;2023-06-04T11:15:45;1.30;;;0.82;;
7545;SDS011;3814;51.454;12.616;2023-06-04T11:18:15;2.10;;;1.10;;
7545;SDS011;3814;51.454;12.616;2023-06-04T11:20:44;2.30;;;0.93;;
7545;SDS011;3814;51.454;12.616;2023-06-04T11:23:11;2.88;;;1.00;;
7545;SDS011;3814;51.454;12.616;2023-06-04T11:25:37;4.68;;;1.10;;
7545;SDS011;3814;51.454;12.616;2023-06-04T11:28:03;2.80;;;0.98;;
7545;SDS011;3814;51.454;12.616;2023-06-04T11:30:29;2.55;;;1.10;;
7545;SDS011;3814;51.454;12.616;2023-06-04T11:33:04;1.75;;;1.08;;
7545;SDS011;3814;51.454;12.616;2023-06-04T11:35:30;3.47;;;0.90;;
7545;SDS011;3814;51.454;12.616;2023-06-04T11:37:56;1.35;;;0.80;;
7545;SDS011;3814;51.454;12.616;2023-06-04T11:40:24;1.25;;;0.75;;
7545;SDS011;3814;51.454;12.616;2023-06-04T11:42:52;2.33;;;1.00;;
7545;SDS011;3814;51.454;12.616;2023-06-04T11:45:18;1.42;;;0.82;;
7545;SDS011;3814;51.454;12.616;2023-06-04T11:47:54;1.75;;;0.90;;
7545;SDS011;3814;51.454;12.616;2023-06-04T11:50:26;2.22;;;0.82;;
7545;SDS011;3814;51.454;12.616;2023-06-04T11:52:53;1.77;;;0.90;;
7545;SDS011;3814;51.454;12.616;2023-06-04T11:55:18;2.40;;;0.93;;
7545;SDS011;3814;51.454;12.616;2023-06-04T11:57:48;4.43;;;0.80;;
7545;SDS011;3814;51.454;12.616;2023-06-04T12:00:15;12.40;;;1.25;;
7545;SDS011;3814;51.454;12.616;2023-06-04T12:05:20;1.42;;;0.82;;
7545;SDS011;3814;51.454;12.616;2023-06-04T12:07:48;5.28;;;1.00;;
7545;SDS011;3814;51.454;12.616;2023-06-04T12:10:15;1.52;;;0.90;;
7545;SDS011;3814;51.454;12.616;2023-06-04T12:12:42;1.23;;;0.75;;
7545;SDS011;3814;51.454;12.616;2023-06-04T12:15:07;3.10;;;0.93;;
7545;SDS011;3814;51.454;12.616;2023-06-04T12:17:34;1.50;;;0.90;;
7545;SDS011;3814;51.454;12.616;2023-06-04T12:20:07;1.67;;;0.90;;
7545;SDS011;3814;51.454;12.616;2023-06-04T12:22:43;1.73;;;0.80;;
7545;SDS011;3814;51.454;12.616;2023-06-04T12:25:09;1.55;;;0.80;;
7545;SDS011;3814;51.454;12.616;2023-06-04T12:27:35;4.72;;;1.42;;
7545;SDS011;3814;51.454;12.616;2023-06-04T12:30:04;3.25;;;1.00;;
7545;SDS011;3814;51.454;12.616;2023-06-04T12:32:35;2.83;;;0.98;;
7545;SDS011;3814;51.454;12.616;2023-06-04T12:35:01;1.55;;;0.80;;
7545;SDS011;3814;51.454;12.616;2023-06-04T12:37:26;2.13;;;0.90;;
7545;SDS011;3814;51.454;12.616;2023-06-04T12:39:53;2.85;;;0.93;;
7545;SDS011;3814;51.454;12.616;2023-06-04T12:42:19;3.00;;;0.80;;
7545;SDS011;3814;51.454;12.616;2023-06-04T12:44:45;2.90;;;1.10;;
7545;SDS011;3814;51.454;12.616;2023-06-04T12:47:11;2.17;;;1.00;;
7545;SDS011;3814;51.454;12.616;2023-06-04T12:49:37;1.98;;;0.98;;
7545;SDS011;3814;51.454;12.616;2023-06-04T12:52:02;2.33;;;1.00;;
7545;SDS011;3814;51.454;12.616;2023-06-04T12:54:28;3.65;;;0.93;;
7545;SDS011;3814;51.454;12.616;2023-06-04T12:57:00;1.73;;;0.82;;
7545;SDS011;3814;51.454;12.616;2023-06-04T12:59:27;2.58;;;1.00;;
7545;SDS011;3814;51.454;12.616;2023-06-04T13:01:55;1.80;;;0.98;;
7545;SDS011;3814;51.454;12.616;2023-06-04T13:04:27;3.42;;;0.95;;
7545;SDS011;3814;51.454;12.616;2023-06-04T13:06:54;3.28;;;0.90;;
7545;SDS011;3814;51.454;12.616;2023-06-04T13:09:26;6.97;;;1.13;;
7545;SDS011;3814;51.454;12.616;2023-06-04T13:11:59;4.22;;;1.00;;
7545;SDS011;3814;51.454;12.616;2023-06-04T13:17:40;1.58;;;1.00;;
7545;SDS011;3814;51.454;12.616;2023-06-04T14:12:16;3.83;;;1.00;;
7545;SDS011;3814;51.454;12.616;2023-06-04T14:17:08;1.52;;;0.80;;
7545;SDS011;3814;51.454;12.616;2023-06-04T14:22:21;1.90;;;1.00;;
7545;SDS011;3814;51.454;12.616;2023-06-04T14:24:47;1.45;;;0.98;;
7545;SDS011;3814;51.454;12.616;2023-06-04T14:27:12;1.42;;;0.93;;
7545;SDS011;3814;51.454;12.616;2023-06-04T14:29:38;1.80;;;0.80;;
7545;SDS011;3814;51.454;12.616;2023-06-04T14:32:04;1.33;;;0.90;;
7545;SDS011;3814;51.454;12.616;2023-06-04T14:34:29;2.17;;;0.80;;
7545;SDS011;3814;51.454;12.616;2023-06-04T14:36:56;2.53;;;1.10;;
7545;SDS011;3814;51.454;12.616;2023-06-04T14:39:24;2.85;;;1.05;;
7545;SDS011;3814;51.454;12.616;2023-06-04T14:41:50;1.83;;;0.90;;
7545;SDS011;3814;51.454;12.616;2023-06-04T14:44:15;2.80;;;1.00;;
7545;SDS011;3814;51.454;12.616;2023-06-04T14:46:40;1.73;;;1.00;;
7545;SDS011;3814;51.454;12.616;2023-06-04T14:49:06;2.13;;;1.00;;
7545;SDS011;3814;51.454;12.616;2023-06-04T14:51:31;3.08;;;1.20;;
7545;SDS011;3814;51.454;12.616;2023-06-04T14:53:56;2.05;;;1.00;;
7545;SDS011;3814;51.454;12.616;2023-06-04T14:56:23;3.17;;;1.10;;
7545;SDS011;3814;51.454;12.616;2023-06-04T14:58:51;1.58;;;0.90;;
7545;SDS011;3814;51.454;12.616;2023-06-04T15:01:16;1.50;;;0.80;;
7545;SDS011;3814;51.454;12.616;2023-06-04T15:03:42;2.22;;;1.00;;
7545;SDS011;3814;51.454;12.616;2023-06-04T15:06:07;3.15;;;1.10;;
7545;SDS011;3814;51.454;12.616;2023-06-04T15:08:32;1.83;;;0.90;;
7545;SDS011;3814;51.454;12.616;2023-06-04T15:10:58;2.05;;;0.80;;
7545;SDS011;3814;51.454;12.616;2023-06-04T15:13:23;3.17;;;1.10;;
7545;SDS011;3814;51.454;12.616;2023-06-04T15:15:48;1.88;;;0.90;;
7545;SDS011;3814;51.454;12.616;2023-06-04T15:18:14;1.85;;;0.93;;
7545;SDS011;3814;51.454;12.616;2023-06-04T15:20:39;2.72;;;0.90;;
7545;SDS011;3814;51.454;12.616;2023-06-04T15:23:04;2.88;;;1.00;;
7545;SDS011;3814;51.454;12.616;2023-06-04T15:25:30;1.67;;;0.93;;
7545;SDS011;3814;51.454;12.616;2023-06-04T15:27:55;1.73;;;0.88;;
7545;SDS011;3814;51.454;12.616;2023-06-04T15:30:20;3.80;;;1.15;;
7545;SDS011;3814;51.454;12.616;2023-06-04T15:32:46;4.03;;;1.00;;
7545;SDS011;3814;51.454;12.616;2023-06-04T15:35:11;2.05;;;1.00;;
7545;SDS011;3814;51.454;12.616;2023-06-04T15:37:36;2.55;;;1.02;;
7545;SDS011;3814;51.454;12.616;2023-06-04T15:40:02;3.05;;;1.08;;
7545;SDS011;3814;51.454;12.616;2023-06-04T15:42:31;1.83;;;1.10;;
7545;SDS011;3814;51.454;12.616;2023-06-04T15:44:56;1.95;;;1.05;;
7545;SDS011;3814;51.454;12.616;2023-06-04T15:47:21;3.58;;;1.10;;
7545;SDS011;3814;51.454;12.616;2023-06-04T15:49:47;2.13;;;1.05;;
7545;SDS011;3814;51.454;12.616;2023-06-04T15:52:12;3.33;;;1.15;;
7545;SDS011;3814;51.454;12.616;2023-06-04T15:54:37;2.90;;;1.13;;
7545;SDS011;3814;51.454;12.616;2023-06-04T15:57:03;2.65;;;1.30;;
7545;SDS011;3814;51.454;12.616;2023-06-04T15:59:28;2.47;;;1.10;;
7545;SDS011;3814;51.454;12.616;2023-06-04T16:01:54;2.67;;;1.00;;
7545;SDS011;3814;51.454;12.616;2023-06-04T16:04:19;3.47;;;1.13;;
7545;SDS011;3814;51.454;12.616;2023-06-04T16:06:44;2.30;;;1.00;;
7545;SDS011;3814;51.454;12.616;2023-06-04T16:09:10;2.55;;;1.10;;
7545;SDS011;3814;51.454;12.616;2023-06-04T16:11:35;2.85;;;1.10;;
7545;SDS011;3814;51.454;12.616;2023-06-04T16:14:03;2.17;;;1.00;;
7545;SDS011;3814;51.454;12.616;2023-06-04T16:16:29;2.13;;;1.08;;